Time;durP1;ratioP1;P1;durP2;ratioP2;P2;SDS_P1;SDS_P2;PMS_P1;PMS_P2;Temp;Humidity;BMP_temperature;BMP_pressure;BME280_temperature;BME280_humidity;BME280_pressure;Samples;Min_cycle;Max_cycle;Signal;HPM_P1;HPM_P2
2021/12/22 00:00:55;;;;;;;;;;;6.20;99.90;;;;;;5053657;28;20343;-74
2021/12/22 00:03:21;;;;;;;;;;;6.10;99.90;;;;;;5054413;28;19955;-75
2021/12/22 00:05:48;;;;;;;;;;;6.20;99.90;;;;;;5054390;28;19908;-74
2021/12/22 00:08:14;;;;;;;;;;;6.20;99.90;;;;;;5054426;28;19904;-74
2021/12/22 00:10:40;;;;;;;;;;;6.30;99.90;;;;;;5054321;28;19948;-74
2021/12/22 00:13:06;;;;;;;;;;;6.30;99.90;;;;;;5053795;28;19901;-74
2021/12/22 00:15:31;;;;;;;;;;;6.30;99.90;;;;;;5054124;28;19912;-74
2021/12/22 00:17:57;;;;;;;;;;;6.30;99.90;;;;;;5053519;28;19982;-74
2021/12/22 00:20:23;;;;;;;;;;;6.30;99.90;;;;;;5054072;28;19995;-74
2021/12/22 00:22:48;;;;;;;;;;;6.20;99.90;;;;;;5053567;28;20352;-74
2021/12/22 00:25:15;;;;;;;;;;;6.20;99.90;;;;;;5054027;28;19982;-74
2021/12/22 00:27:41;;;;;;;;;;;6.20;99.90;;;;;;5054206;28;19904;-74
2021/12/22 00:30:07;;;;;;;;;;;6.20;99.90;;;;;;5053346;28;20523;-74
2021/12/22 00:32:35;;;;;;;;;;;6.20;99.90;;;;;;5054053;28;19908;-74
2021/12/22 00:35:00;;;;;;;;;;;6.20;99.90;;;;;;5053458;28;19909;-74
2021/12/22 00:37:28;;;;;;;;;;;6.10;99.90;;;;;;5053454;28;19904;-74
2021/12/22 00:39:54;;;;;;;;;;;6.10;99.90;;;;;;5053315;28;19905;-74
2021/12/22 00:42:20;;;;;;;;;;;6.10;99.90;;;;;;5053595;28;19908;-74
2021/12/22 00:44:50;;;;;;;;;;;6.10;99.90;;;;;;5054173;28;19966;-74
2021/12/22 00:47:16;;;;;;;;;;;6.10;99.90;;;;;;5053786;28;19905;-74
2021/12/22 00:49:42;;;;;;;;;;;6.10;99.90;;;;;;5053590;28;20015;-74
2021/12/22 00:52:07;;;;;;;;;;;6.10;99.90;;;;;;5053075;28;20004;-74
2021/12/22 00:54:33;;;;;;;;;;;6.10;99.90;;;;;;5053776;28;19951;-74
2021/12/22 00:57:06;;;;;;;;;;;6.10;99.90;;;;;;5053364;28;19904;-74
2021/12/22 00:59:32;;;;;;;;;;;6.10;99.90;;;;;;5053679;28;19905;-74
2021/12/22 01:01:58;;;;;;;;;;;6.10;99.90;;;;;;5052128;28;19947;-74
2021/12/22 01:04:24;;;;;;;;;;;6.10;99.90;;;;;;5053321;28;19958;-74
2021/12/22 01:06:49;;;;;;;;;;;6.10;99.90;;;;;;5053226;28;19904;-74
2021/12/22 01:09:15;;;;;;;;;;;6.10;99.90;;;;;;5052756;28;19912;-74
2021/12/22 01:11:40;;;;;;;;;;;6.10;99.90;;;;;;5053294;28;20421;-74
2021/12/22 01:14:06;;;;;;;;;;;6.10;99.90;;;;;;5052798;28;19947;-74
2021/12/22 01:16:32;;;;;;;;;;;6.10;99.90;;;;;;5053409;28;19952;-74
2021/12/22 01:19:01;;;;;;;;;;;6.10;99.90;;;;;;5052407;28;19912;-74
2021/12/22 01:24:10;;;;;;;;;;;6.20;99.90;;;;;;5052537;28;20248;-74
2021/12/22 01:26:41;;;;;;;;;;;6.20;99.90;;;;;;5053418;28;19904;-74
2021/12/22 01:29:07;;;;;;;;;;;6.10;99.90;;;;;;5052546;28;20043;-73
2021/12/22 01:31:32;;;;;;;;;;;6.10;99.90;;;;;;5053154;28;20383;-74
2021/12/22 01:33:58;;;;;;;;;;;6.10;99.90;;;;;;5052375;28;19948;-74
2021/12/22 01:36:23;;;;;;;;;;;6.00;99.90;;;;;;5052799;28;19987;-74
2021/12/22 01:38:49;;;;;;;;;;;6.00;99.90;;;;;;5053105;28;19905;-74
2021/12/22 01:41:15;;;;;;;;;;;6.00;99.90;;;;;;5052410;28;20019;-74
2021/12/22 01:43:40;;;;;;;;;;;6.00;99.90;;;;;;5053088;28;20404;-74
2021/12/22 01:46:32;;;;;;;;;;;6.00;99.90;;;;;;5052159;28;19927;-73
2021/12/22 01:49:13;;;;;;;;;;;6.00;99.90;;;;;;5051880;28;20016;-74
2021/12/22 01:51:38;;;;;;;;;;;6.00;99.90;;;;;;5053237;28;19912;-74
2021/12/22 01:54:19;;;;;;;;;;;5.90;99.90;;;;;;5052030;28;19904;-74
2021/12/22 01:56:45;;;;;;;;;;;6.00;99.90;;;;;;5052600;28;19911;-74
2021/12/22 01:59:11;;;;;;;;;;;6.00;99.90;;;;;;5052102;28;20569;-74
2021/12/22 02:01:37;;;;;;;;;;;6.10;99.90;;;;;;5052767;28;19944;-74
2021/12/22 02:04:04;;;;;;;;;;;6.00;99.90;;;;;;5052230;28;20271;-74
2021/12/22 02:06:30;;;;;;;;;;;6.10;99.90;;;;;;5052828;28;19905;-73
2021/12/22 02:08:58;;;;;;;;;;;6.10;99.90;;;;;;5051818;28;19936;-74
2021/12/22 02:11:23;;;;;;;;;;;6.10;99.90;;;;;;5052666;28;19924;-74
2021/12/22 02:13:56;;;;;;;;;;;6.20;99.90;;;;;;5051203;28;19908;-74
2021/12/22 02:16:27;;;;;;;;;;;6.20;99.90;;;;;;5052671;28;19991;-74
2021/12/22 02:18:53;;;;;;;;;;;6.20;99.90;;;;;;5052543;28;19904;-74
2021/12/22 02:21:20;;;;;;;;;;;6.20;99.90;;;;;;5052294;28;20366;-74
2021/12/22 02:23:46;;;;;;;;;;;6.20;99.90;;;;;;5052594;28;19911;-74
2021/12/22 02:26:37;;;;;;;;;;;6.20;99.90;;;;;;5051669;28;20090;-74
2021/12/22 02:29:06;;;;;;;;;;;6.20;99.90;;;;;;5051910;28;19919;-74
2021/12/22 02:31:39;;;;;;;;;;;6.20;99.90;;;;;;5052628;28;19927;-74
2021/12/22 02:34:06;;;;;;;;;;;6.20;99.90;;;;;;5051485;28;20355;-74
2021/12/22 02:36:38;;;;;;;;;;;6.30;99.90;;;;;;5052449;28;19905;-74
2021/12/22 02:39:04;;;;;;;;;;;6.30;99.90;;;;;;5052156;28;19905;-74
2021/12/22 02:41:31;;;;;;;;;;;6.30;99.90;;;;;;5052159;28;19958;-74
2021/12/22 02:43:57;;;;;;;;;;;6.30;99.90;;;;;;5051733;28;20367;-75
2021/12/22 02:46:23;;;;;;;;;;;6.30;99.90;;;;;;5052312;28;19904;-74
2021/12/22 02:48:49;;;;;;;;;;;6.30;99.90;;;;;;5051083;28;19935;-74
2021/12/22 02:51:15;;;;;;;;;;;6.30;99.90;;;;;;5050411;28;19904;-74
2021/12/22 02:59:02;;;;;;;;;;;6.30;99.90;;;;;;5052089;28;20003;-74
2021/12/22 03:06:32;;;;;;;;;;;6.30;99.90;;;;;;5051993;28;19912;-74
2021/12/22 03:08:58;;;;;;;;;;;6.20;99.90;;;;;;5051798;28;19913;-73
2021/12/22 03:11:24;;;;;;;;;;;6.20;99.90;;;;;;5051676;28;19917;-74
2021/12/22 03:13:50;;;;;;;;;;;6.30;99.90;;;;;;5067457;28;19930;-74
2021/12/22 03:16:19;;;;;;;;;;;6.30;99.90;;;;;;5051210;28;20460;-74
2021/12/22 03:18:45;;;;;;;;;;;6.30;99.90;;;;;;5051785;28;19939;-74
2021/12/22 03:21:21;;;;;;;;;;;6.30;99.90;;;;;;5051340;28;19911;-74
2021/12/22 03:23:47;;;;;;;;;;;6.20;99.90;;;;;;5051939;28;19955;-74
2021/12/22 03:26:17;;;;;;;;;;;6.20;99.90;;;;;;5053176;28;19905;-74
2021/12/22 03:28:44;;;;;;;;;;;6.20;99.90;;;;;;5055224;28;19912;-74
2021/12/22 03:31:09;;;;;;;;;;;6.10;99.90;;;;;;5054981;28;19905;-73
2021/12/22 03:33:35;;;;;;;;;;;6.10;99.90;;;;;;5055771;28;19905;-73
2021/12/22 03:36:01;;;;;;;;;;;6.10;99.90;;;;;;5063832;28;19911;-74
2021/12/22 03:38:26;;;;;;;;;;;6.10;99.90;;;;;;5064942;28;19915;-74
2021/12/22 03:40:52;;;;;;;;;;;6.10;99.90;;;;;;5055604;28;20018;-73
2021/12/22 03:43:18;;;;;;;;;;;6.00;99.90;;;;;;5070625;28;19905;-73
2021/12/22 03:45:43;;;;;;;;;;;6.00;99.90;;;;;;5055109;28;19999;-74
2021/12/22 03:48:09;;;;;;;;;;;6.00;99.90;;;;;;5054562;28;19927;-74
2021/12/22 03:50:35;;;;;;;;;;;6.00;99.90;;;;;;5055233;28;19951;-74
2021/12/22 03:53:00;;;;;;;;;;;6.00;99.90;;;;;;5054944;28;19959;-74
2021/12/22 03:55:26;;;;;;;;;;;6.00;99.90;;;;;;5054785;28;19911;-74
2021/12/22 03:57:51;;;;;;;;;;;6.00;99.90;;;;;;5054944;28;19905;-74
2021/12/22 04:00:17;;;;;;;;;;;6.00;99.90;;;;;;5054405;28;19944;-74
2021/12/22 04:02:43;;;;;;;;;;;6.00;99.90;;;;;;5054943;28;19987;-74
2021/12/22 04:05:09;;;;;;;;;;;6.00;99.90;;;;;;5054164;28;19958;-74
2021/12/22 04:07:34;;;;;;;;;;;6.00;99.90;;;;;;5054873;28;19909;-74
2021/12/22 04:10:08;;;;;;;;;;;6.00;99.90;;;;;;5054507;28;19952;-74
2021/12/22 04:12:34;;;;;;;;;;;6.00;99.90;;;;;;5054947;28;19970;-73
2021/12/22 04:14:59;;;;;;;;;;;6.00;99.90;;;;;;5054971;28;20255;-74
2021/12/22 04:17:25;;;;;;;;;;;5.90;99.90;;;;;;5053805;28;19905;-74
2021/12/22 04:19:50;;;;;;;;;;;6.00;99.90;;;;;;5054698;28;20014;-73
2021/12/22 04:22:16;;;;;;;;;;;6.00;99.90;;;;;;5054049;28;19909;-73
2021/12/22 04:24:42;;;;;;;;;;;6.00;99.90;;;;;;5054625;28;19909;-74
2021/12/22 04:27:08;;;;;;;;;;;6.00;99.90;;;;;;5053931;28;19904;-74
2021/12/22 04:29:33;;;;;;;;;;;6.00;99.90;;;;;;5054571;28;19917;-74
2021/12/22 04:31:59;;;;;;;;;;;6.00;99.90;;;;;;5054393;28;19908;-74
2021/12/22 04:34:24;;;;;;;;;;;6.00;99.90;;;;;;5053376;28;20499;-74
2021/12/22 04:36:50;;;;;;;;;;;6.00;99.90;;;;;;5053561;28;19911;-74
2021/12/22 04:39:15;;;;;;;;;;;6.00;99.90;;;;;;5053866;28;19911;-74
2021/12/22 04:41:41;;;;;;;;;;;6.00;99.90;;;;;;5054305;28;19928;-74
2021/12/22 04:44:07;;;;;;;;;;;5.90;99.90;;;;;;5053486;28;20382;-75
2021/12/22 04:46:32;;;;;;;;;;;5.90;99.90;;;;;;5054327;28;19905;-75
2021/12/22 04:48:58;;;;;;;;;;;5.90;99.90;;;;;;5053999;28;19912;-75
2021/12/22 04:51:29;;;;;;;;;;;5.80;99.90;;;;;;5053602;28;20335;-75
2021/12/22 04:54:12;;;;;;;;;;;5.80;99.90;;;;;;5053876;28;20240;-75
2021/12/22 04:56:39;;;;;;;;;;;5.80;99.90;;;;;;5054094;28;19905;-73
2021/12/22 04:59:05;;;;;;;;;;;5.90;99.90;;;;;;5053431;28;20419;-75
2021/12/22 05:01:30;;;;;;;;;;;5.90;99.90;;;;;;5053626;28;19936;-74
2021/12/22 05:03:56;;;;;;;;;;;6.00;99.90;;;;;;5053444;28;19999;-73
2021/12/22 05:06:23;;;;;;;;;;;6.00;99.90;;;;;;5052800;28;19909;-73
2021/12/22 05:08:48;;;;;;;;;;;6.10;99.90;;;;;;5053676;28;19975;-73
2021/12/22 05:11:14;;;;;;;;;;;6.10;99.90;;;;;;5052801;28;20382;-74
2021/12/22 05:13:39;;;;;;;;;;;6.20;99.90;;;;;;5053617;28;19905;-73
2021/12/22 05:16:06;;;;;;;;;;;6.20;99.90;;;;;;5053504;28;19912;-73
2021/12/22 05:18:50;;;;;;;;;;;6.30;99.90;;;;;;5053215;28;20422;-74
2021/12/22 05:21:16;;;;;;;;;;;6.30;99.90;;;;;;5052969;28;19995;-74
2021/12/22 05:23:41;;;;;;;;;;;6.30;99.90;;;;;;5053461;28;19971;-73
2021/12/22 05:26:07;;;;;;;;;;;6.30;99.90;;;;;;5053320;28;19909;-73
2021/12/22 05:28:33;;;;;;;;;;;6.30;99.90;;;;;;5052723;28;19959;-74
2021/12/22 05:30:58;;;;;;;;;;;6.30;99.90;;;;;;5052984;28;19904;-73
2021/12/22 05:33:24;;;;;;;;;;;6.40;99.90;;;;;;5052460;28;19919;-74
2021/12/22 05:35:49;;;;;;;;;;;6.40;99.90;;;;;;5053129;28;20297;-74
2021/12/22 05:38:15;;;;;;;;;;;6.40;99.90;;;;;;5052273;28;19909;-74
2021/12/22 05:40:40;;;;;;;;;;;6.40;99.90;;;;;;5068678;28;19911;-74
2021/12/22 05:43:06;;;;;;;;;;;6.40;99.90;;;;;;5053193;28;19905;-74
2021/12/22 05:45:32;;;;;;;;;;;6.40;99.90;;;;;;5052783;28;19950;-74
2021/12/22 05:47:57;;;;;;;;;;;6.50;99.90;;;;;;5052749;28;20339;-74
2021/12/22 05:50:23;;;;;;;;;;;6.40;99.90;;;;;;5052235;28;20391;-73
2021/12/22 05:52:49;;;;;;;;;;;6.50;99.90;;;;;;5052977;28;20382;-74
2021/12/22 05:55:15;;;;;;;;;;;6.50;99.90;;;;;;5052205;28;20393;-73
2021/12/22 05:57:40;;;;;;;;;;;6.50;99.90;;;;;;5053108;28;19911;-74
2021/12/22 06:00:06;;;;;;;;;;;6.50;99.90;;;;;;5052785;28;19905;-75
2021/12/22 06:02:32;;;;;;;;;;;6.50;99.90;;;;;;5051982;28;19905;-74
2021/12/22 06:04:58;;;;;;;;;;;6.60;99.90;;;;;;5052886;28;20271;-74
2021/12/22 06:07:23;;;;;;;;;;;6.60;99.90;;;;;;5052582;28;19912;-74
2021/12/22 06:09:49;;;;;;;;;;;6.60;99.90;;;;;;5065093;28;19976;-73
2021/12/22 06:12:14;;;;;;;;;;;6.60;99.90;;;;;;5064228;28;19923;-74
2021/12/22 06:14:40;;;;;;;;;;;6.60;99.90;;;;;;5051468;28;19909;-74
2021/12/22 06:17:06;;;;;;;;;;;6.60;99.90;;;;;;5052591;28;20260;-74
2021/12/22 06:19:32;;;;;;;;;;;6.60;99.90;;;;;;5051954;28;19901;-74
2021/12/22 06:21:57;;;;;;;;;;;6.60;99.90;;;;;;5052649;28;20344;-73
2021/12/22 06:24:23;;;;;;;;;;;6.60;99.90;;;;;;5051629;28;19904;-75
2021/12/22 06:26:48;;;;;;;;;;;6.60;99.90;;;;;;5052627;28;19905;-74
2021/12/22 06:29:14;;;;;;;;;;;6.70;99.90;;;;;;5067245;28;19935;-74
2021/12/22 06:31:40;;;;;;;;;;;6.70;99.90;;;;;;5052398;28;19912;-74
2021/12/22 06:34:05;;;;;;;;;;;6.70;99.90;;;;;;5052478;28;20382;-74
2021/12/22 06:36:31;;;;;;;;;;;6.70;99.90;;;;;;5051827;28;19936;-74
2021/12/22 06:38:57;;;;;;;;;;;6.70;99.90;;;;;;5052485;28;20345;-74
2021/12/22 06:41:22;;;;;;;;;;;6.70;99.90;;;;;;5051809;28;19987;-73
2021/12/22 06:43:48;;;;;;;;;;;6.70;99.90;;;;;;5052402;28;19911;-73
2021/12/22 06:46:13;;;;;;;;;;;6.70;99.90;;;;;;5051982;28;19905;-72
2021/12/22 06:48:39;;;;;;;;;;;6.70;99.90;;;;;;5052671;28;19967;-73
2021/12/22 06:51:06;;;;;;;;;;;6.60;99.90;;;;;;5052317;28;19911;-75
2021/12/22 06:53:34;;;;;;;;;;;6.60;99.90;;;;;;5051526;28;20315;-75
2021/12/22 06:56:00;;;;;;;;;;;6.60;99.90;;;;;;5052339;28;20275;-75
2021/12/22 06:58:26;;;;;;;;;;;6.60;99.90;;;;;;5051387;28;19911;-75
2021/12/22 07:00:51;;;;;;;;;;;6.50;99.90;;;;;;5053510;28;19905;-75
2021/12/22 07:03:17;;;;;;;;;;;6.50;99.90;;;;;;5055541;28;19963;-77
2021/12/22 07:05:43;;;;;;;;;;;6.50;99.90;;;;;;5056094;28;20267;-75
2021/12/22 07:08:09;;;;;;;;;;;6.50;99.90;;;;;;5055915;28;19913;-75
2021/12/22 07:10:34;;;;;;;;;;;6.40;99.90;;;;;;5053793;28;19908;-75
2021/12/22 07:13:00;;;;;;;;;;;6.40;99.90;;;;;;5056005;28;20395;-75
2021/12/22 07:15:25;;;;;;;;;;;6.40;99.90;;;;;;5055071;28;19974;-75
2021/12/22 07:17:51;;;;;;;;;;;6.40;99.90;;;;;;5055454;28;19904;-75
2021/12/22 07:20:17;;;;;;;;;;;6.40;99.90;;;;;;5055221;28;19963;-79
2021/12/22 07:22:43;;;;;;;;;;;6.40;99.90;;;;;;5070841;28;19904;-76
2021/12/22 07:25:09;;;;;;;;;;;6.40;99.90;;;;;;5054448;28;19954;-77
2021/12/22 07:27:34;;;;;;;;;;;6.40;99.90;;;;;;5054907;28;20045;-76
2021/12/22 07:30:00;;;;;;;;;;;6.40;99.90;;;;;;5054202;28;20400;-76
2021/12/22 07:32:26;;;;;;;;;;;6.40;99.90;;;;;;5055180;28;19996;-78
2021/12/22 07:34:51;;;;;;;;;;;6.40;99.90;;;;;;5055908;28;19905;-80
2021/12/22 07:37:27;;;;;;;;;;;6.40;99.90;;;;;;5054708;28;19963;-83
2021/12/22 07:39:53;;;;;;;;;;;6.40;99.90;;;;;;5054148;28;20301;-80
2021/12/22 07:42:18;;;;;;;;;;;6.30;99.90;;;;;;5054596;28;19987;-79
2021/12/22 07:44:44;;;;;;;;;;;6.30;99.90;;;;;;5058235;28;19908;-76
2021/12/22 07:47:09;;;;;;;;;;;6.30;99.90;;;;;;5074895;28;19928;-76
2021/12/22 07:49:35;;;;;;;;;;;6.30;99.90;;;;;;5076682;28;19992;-77
2021/12/22 07:52:01;;;;;;;;;;;6.40;99.90;;;;;;5069628;28;20034;-77
2021/12/22 07:54:26;;;;;;;;;;;6.30;99.90;;;;;;5055044;28;20379;-76
2021/12/22 07:56:52;;;;;;;;;;;6.30;99.90;;;;;;5055424;28;19908;-76
2021/12/22 07:59:17;;;;;;;;;;;6.30;99.90;;;;;;5054047;28;19904;-78
2021/12/22 08:01:43;;;;;;;;;;;6.40;99.90;;;;;;5054915;28;19958;-78
2021/12/22 08:04:09;;;;;;;;;;;6.40;99.90;;;;;;5054706;28;19963;-80
2021/12/22 08:06:34;;;;;;;;;;;6.40;99.90;;;;;;5052707;28;19904;-78
2021/12/22 08:09:00;;;;;;;;;;;6.40;99.90;;;;;;5054920;28;19908;-80
2021/12/22 08:11:25;;;;;;;;;;;6.40;99.90;;;;;;5053887;28;19964;-80
2021/12/22 08:13:51;;;;;;;;;;;6.40;99.90;;;;;;5054863;28;19950;-80
2021/12/22 08:16:17;;;;;;;;;;;6.40;99.90;;;;;;5054287;28;19995;-83
2021/12/22 08:18:42;;;;;;;;;;;6.40;99.90;;;;;;5052926;28;20270;-80
2021/12/22 08:21:08;;;;;;;;;;;6.40;99.90;;;;;;5054715;28;19911;-79
2021/12/22 08:23:33;;;;;;;;;;;6.50;99.90;;;;;;5052816;28;19947;-78
2021/12/22 08:25:59;;;;;;;;;;;6.50;99.90;;;;;;5054171;28;19912;-77
2021/12/22 08:28:25;;;;;;;;;;;6.40;99.90;;;;;;5052559;28;19911;-79
2021/12/22 08:30:50;;;;;;;;;;;6.40;99.90;;;;;;5053202;28;20343;-80
2021/12/22 08:33:25;;;;;;;;;;;6.50;99.90;;;;;;5054505;28;20256;-78
2021/12/22 08:38:51;;;;;;;;;;;6.40;99.90;;;;;;5053505;28;19980;-76
2021/12/22 08:41:37;;;;;;;;;;;6.50;99.90;;;;;;5054375;28;20401;-76
2021/12/22 08:44:05;;;;;;;;;;;6.50;99.90;;;;;;5054337;28;19913;-76
2021/12/22 08:46:31;;;;;;;;;;;6.50;99.90;;;;;;5053782;28;19987;-74
2021/12/22 08:48:57;;;;;;;;;;;6.50;99.90;;;;;;5054372;28;19916;-75
2021/12/22 08:51:23;;;;;;;;;;;6.50;99.90;;;;;;5054190;28;19904;-74
2021/12/22 08:53:48;;;;;;;;;;;6.50;99.90;;;;;;5052424;28;19904;-74
2021/12/22 08:56:14;;;;;;;;;;;6.50;99.90;;;;;;5054037;28;19905;-73
2021/12/22 08:58:40;;;;;;;;;;;6.60;99.90;;;;;;5053067;28;19958;-73
2021/12/22 09:01:06;;;;;;;;;;;6.50;99.90;;;;;;5053459;28;19951;-72
2021/12/22 09:03:32;;;;;;;;;;;6.50;99.90;;;;;;5052643;28;19958;-73
2021/12/22 09:05:59;;;;;;;;;;;6.60;99.90;;;;;;5053298;28;19987;-71
2021/12/22 09:08:24;;;;;;;;;;;6.60;99.90;;;;;;5053026;28;19908;-73
2021/12/22 09:10:50;;;;;;;;;;;6.60;99.90;;;;;;5053428;28;20299;-72
2021/12/22 09:13:17;;;;;;;;;;;6.60;99.90;;;;;;5052488;28;20070;-72
2021/12/22 09:15:43;;;;;;;;;;;6.60;99.90;;;;;;5052586;28;19912;-73
2021/12/22 09:18:08;;;;;;;;;;;6.60;99.90;;;;;;5053301;28;19905;-73
2021/12/22 09:20:34;;;;;;;;;;;6.70;99.90;;;;;;5052844;28;19966;-72
2021/12/22 09:23:00;;;;;;;;;;;6.70;99.90;;;;;;5052636;28;19911;-72
2021/12/22 09:25:25;;;;;;;;;;;6.70;99.90;;;;;;5052945;28;19909;-73
2021/12/22 09:27:51;;;;;;;;;;;6.70;99.90;;;;;;5053117;28;19959;-72
2021/12/22 09:30:16;;;;;;;;;;;6.70;99.90;;;;;;5052122;28;20350;-72
2021/12/22 09:32:42;;;;;;;;;;;6.70;99.90;;;;;;5052656;28;20359;-72
2021/12/22 09:35:08;;;;;;;;;;;6.80;99.90;;;;;;5053029;28;19904;-72
2021/12/22 09:37:33;;;;;;;;;;;6.70;99.90;;;;;;5052147;28;20348;-73
2021/12/22 09:40:01;;;;;;;;;;;6.80;99.90;;;;;;5053107;28;19905;-72
2021/12/22 09:42:27;;;;;;;;;;;6.80;99.90;;;;;;5052138;28;20006;-73
2021/12/22 09:44:52;;;;;;;;;;;6.80;99.90;;;;;;5052801;28;20359;-72
2021/12/22 09:47:27;;;;;;;;;;;6.80;99.90;;;;;;5052701;28;20279;-72
2021/12/22 09:50:38;;;;;;;;;;;6.80;99.90;;;;;;5052620;28;19920;-72
2021/12/22 09:52:44;;;;;;;;;;;6.90;99.90;;;;;;5051332;28;20532;-73
2021/12/22 09:55:10;;;;;;;;;;;6.90;99.90;;;;;;5052574;28;19905;-73
2021/12/22 09:57:35;;;;;;;;;;;6.90;99.90;;;;;;5052127;28;19970;-73
2021/12/22 10:00:02;;;;;;;;;;;6.90;99.90;;;;;;5052244;28;19912;-73
2021/12/22 10:02:29;;;;;;;;;;;6.90;99.90;;;;;;5051580;28;20314;-73
2021/12/22 10:04:59;;;;;;;;;;;6.90;99.90;;;;;;5052319;28;19904;-73
2021/12/22 10:07:27;;;;;;;;;;;7.00;99.90;;;;;;5052195;28;19955;-73
2021/12/22 10:09:54;;;;;;;;;;;7.00;99.90;;;;;;5052170;28;19913;-73
2021/12/22 10:12:21;;;;;;;;;;;7.00;99.90;;;;;;5051749;28;19943;-73
2021/12/22 10:14:48;;;;;;;;;;;7.10;99.90;;;;;;5051638;28;20465;-73
2021/12/22 10:17:25;;;;;;;;;;;7.10;99.90;;;;;;5051803;28;19905;-73
2021/12/22 10:19:53;;;;;;;;;;;7.10;99.90;;;;;;5051695;28;19999;-73
2021/12/22 10:22:18;;;;;;;;;;;7.10;99.90;;;;;;5052222;28;19904;-74
2021/12/22 10:24:46;;;;;;;;;;;7.10;99.90;;;;;;5051857;28;20548;-73
2021/12/22 10:27:18;;;;;;;;;;;7.10;99.90;;;;;;5051922;28;20351;-73
2021/12/22 10:29:43;;;;;;;;;;;7.10;99.90;;;;;;5051286;28;19913;-73
2021/12/22 10:32:10;;;;;;;;;;;7.10;99.90;;;;;;5051868;28;19912;-73
2021/12/22 10:34:36;;;;;;;;;;;7.10;99.90;;;;;;5051446;28;19957;-74
2021/12/22 10:37:02;;;;;;;;;;;7.10;99.90;;;;;;5055731;28;20399;-73
2021/12/22 10:39:29;;;;;;;;;;;7.10;99.90;;;;;;5056010;28;20225;-74
2021/12/22 10:42:21;;;;;;;;;;;7.10;99.90;;;;;;5057185;28;19927;-72
2021/12/22 10:44:47;;;;;;;;;;;7.10;99.90;;;;;;5055864;28;19912;-73
2021/12/22 10:47:14;;;;;;;;;;;7.10;99.90;;;;;;5056034;28;19905;-73
2021/12/22 10:49:40;;;;;;;;;;;7.10;99.90;;;;;;5055016;28;19913;-73
2021/12/22 10:52:06;;;;;;;;;;;7.20;99.90;;;;;;5055460;28;19912;-73
2021/12/22 10:54:34;;;;;;;;;;;7.20;99.90;;;;;;5055200;28;20389;-73
2021/12/22 10:57:01;;;;;;;;;;;7.20;99.90;;;;;;5055743;28;19905;-73
2021/12/22 10:59:27;;;;;;;;;;;7.20;99.90;;;;;;5055664;28;19909;-76
2021/12/22 11:02:10;;;;;;;;;;;7.20;99.90;;;;;;5055653;28;19912;-75
2021/12/22 11:04:41;;;;;;;;;;;7.20;99.90;;;;;;5055144;28;19912;-75
2021/12/22 11:07:08;;;;;;;;;;;7.20;99.90;;;;;;5055525;28;19916;-74
2021/12/22 11:09:37;;;;;;;;;;;7.20;99.90;;;;;;5054852;28;19920;-74
2021/12/22 11:12:03;;;;;;;;;;;7.20;99.90;;;;;;5055493;28;19924;-74
2021/12/22 11:14:33;;;;;;;;;;;7.20;99.90;;;;;;5055366;28;19916;-74
2021/12/22 11:17:04;;;;;;;;;;;7.20;99.90;;;;;;5055787;28;19973;-74
2021/12/22 11:19:49;;;;;;;;;;;7.20;99.90;;;;;;5054583;28;19909;-75
2021/12/22 11:22:16;;;;;;;;;;;7.20;99.90;;;;;;5056358;28;19904;-74
2021/12/22 11:24:46;;;;;;;;;;;7.20;99.90;;;;;;5069844;28;20320;-72
2021/12/22 11:27:13;;;;;;;;;;;7.30;99.90;;;;;;5055116;28;19930;-75
2021/12/22 11:29:40;;;;;;;;;;;7.30;99.90;;;;;;5054682;28;19913;-72
2021/12/22 11:32:06;;;;;;;;;;;7.30;99.90;;;;;;5055243;28;19905;-72
2021/12/22 11:34:35;;;;;;;;;;;7.30;99.90;;;;;;5054587;28;19911;-74
2021/12/22 11:37:01;;;;;;;;;;;7.40;99.90;;;;;;5054953;28;19994;-72
2021/12/22 11:39:27;;;;;;;;;;;7.40;99.90;;;;;;5054422;28;20632;-73
2021/12/22 11:41:58;;;;;;;;;;;7.40;99.90;;;;;;5054283;28;19944;-73
2021/12/22 11:44:27;;;;;;;;;;;7.40;99.90;;;;;;5054956;28;19909;-73
2021/12/22 11:46:54;;;;;;;;;;;7.50;99.90;;;;;;5053812;28;19905;-73
2021/12/22 11:49:20;;;;;;;;;;;7.60;99.90;;;;;;5054610;28;19923;-73
2021/12/22 11:51:46;;;;;;;;;;;7.60;99.90;;;;;;5054083;28;19992;-73
2021/12/22 11:54:12;;;;;;;;;;;7.60;99.90;;;;;;5053216;28;19948;-73
2021/12/22 11:56:37;;;;;;;;;;;7.70;99.90;;;;;;5053876;28;19908;-73
2021/12/22 11:59:03;;;;;;;;;;;7.90;99.90;;;;;;5054564;28;20038;-72
2021/12/22 12:01:29;;;;;;;;;;;7.90;99.90;;;;;;5070183;28;19912;-74
2021/12/22 12:04:10;;;;;;;;;;;8.00;99.90;;;;;;5054113;28;19905;-73
2021/12/22 12:06:49;;;;;;;;;;;8.10;99.90;;;;;;5053448;28;19920;-73
2021/12/22 12:09:15;;;;;;;;;;;8.10;99.90;;;;;;5053778;28;19913;-73
2021/12/22 12:11:56;;;;;;;;;;;8.20;99.90;;;;;;5053326;28;20431;-72
2021/12/22 12:15:03;;;;;;;;;;;8.20;99.90;;;;;;5054527;28;20355;-72
2021/12/22 12:23:18;;;;;;;;;;;8.20;99.90;;;;;;5054071;28;20000;-73
2021/12/22 12:25:44;;;;;;;;;;;8.20;99.90;;;;;;5053144;28;20307;-74
2021/12/22 12:28:14;;;;;;;;;;;8.20;99.90;;;;;;5052618;28;19904;-73
2021/12/22 12:30:45;;;;;;;;;;;8.20;99.90;;;;;;5053288;28;19966;-73
2021/12/22 12:33:27;;;;;;;;;;;8.20;99.90;;;;;;5054014;28;19909;-74
2021/12/22 12:35:55;;;;;;;;;;;8.20;99.90;;;;;;5053061;28;19955;-73
2021/12/22 12:38:24;;;;;;;;;;;8.20;99.90;;;;;;5053827;28;19936;-73
2021/12/22 12:41:16;;;;;;;;;;;8.20;99.90;;;;;;5053035;28;19966;-73
2021/12/22 12:46:19;;;;;;;;;;;8.20;99.90;;;;;;5053744;28;19909;-74
2021/12/22 12:48:48;;;;;;;;;;;8.20;99.90;;;;;;5053222;28;19927;-74
2021/12/22 12:51:15;;;;;;;;;;;8.20;99.90;;;;;;5053255;28;19951;-74
2021/12/22 12:53:41;;;;;;;;;;;8.20;99.90;;;;;;5053025;28;19905;-74
2021/12/22 12:56:08;;;;;;;;;;;8.20;99.90;;;;;;5053647;28;19909;-74
2021/12/22 12:58:34;;;;;;;;;;;8.20;99.90;;;;;;5050824;28;19912;-75
2021/12/22 13:00:59;;;;;;;;;;;8.20;99.90;;;;;;5053403;28;19905;-74
2021/12/22 13:03:25;;;;;;;;;;;8.10;99.90;;;;;;5053222;28;19904;-74
2021/12/22 13:05:50;;;;;;;;;;;8.20;99.90;;;;;;5052567;28;19905;-75
2021/12/22 13:08:16;;;;;;;;;;;8.10;99.90;;;;;;5053431;28;20370;-74
2021/12/22 13:10:48;;;;;;;;;;;8.10;99.90;;;;;;5052459;28;20058;-74
2021/12/22 13:13:16;;;;;;;;;;;8.20;99.90;;;;;;5052765;28;19917;-74
2021/12/22 13:15:49;;;;;;;;;;;8.20;99.90;;;;;;5052554;28;19913;-74
2021/12/22 13:18:26;;;;;;;;;;;8.20;99.90;;;;;;5053467;28;20256;-74
2021/12/22 13:20:55;;;;;;;;;;;8.20;99.90;;;;;;5052066;28;19905;-74
2021/12/22 13:23:22;;;;;;;;;;;8.20;99.90;;;;;;5052522;28;19908;-74
2021/12/22 13:25:48;;;;;;;;;;;8.20;99.90;;;;;;5051995;28;19916;-74
2021/12/22 13:28:16;;;;;;;;;;;8.30;99.90;;;;;;5051486;28;20344;-74
2021/12/22 13:30:43;;;;;;;;;;;8.30;99.90;;;;;;5052096;28;19917;-75
2021/12/22 13:33:08;;;;;;;;;;;8.30;99.90;;;;;;5050392;28;19995;-74
2021/12/22 13:35:40;;;;;;;;;;;8.30;99.90;;;;;;5051667;28;19944;-74
2021/12/22 13:38:11;;;;;;;;;;;8.40;99.90;;;;;;5052409;28;19911;-74
2021/12/22 13:40:49;;;;;;;;;;;8.40;99.90;;;;;;5051570;28;20270;-75
2021/12/22 13:43:25;;;;;;;;;;;8.50;99.90;;;;;;5052715;28;19912;-74
2021/12/22 13:45:52;;;;;;;;;;;8.40;99.90;;;;;;5051981;28;19908;-74
2021/12/22 13:48:19;;;;;;;;;;;8.50;99.90;;;;;;5052682;28;19904;-74
2021/12/22 13:50:46;;;;;;;;;;;8.60;99.90;;;;;;5051925;28;20011;-74
2021/12/22 13:53:13;;;;;;;;;;;8.50;99.90;;;;;;5051956;28;19951;-74
2021/12/22 13:55:39;;;;;;;;;;;8.60;99.90;;;;;;5051956;28;20395;-74
2021/12/22 13:58:23;;;;;;;;;;;8.60;99.90;;;;;;5053846;28;19948;-74
2021/12/22 14:00:49;;;;;;;;;;;8.60;99.90;;;;;;5051781;28;19905;-74
2021/12/22 14:03:15;;;;;;;;;;;8.70;99.90;;;;;;5052082;28;20422;-74
2021/12/22 14:05:41;;;;;;;;;;;8.70;99.90;;;;;;5048083;28;19909;-75
2021/12/22 14:08:22;;;;;;;;;;;8.70;99.90;;;;;;5051014;28;19928;-74
2021/12/22 14:10:47;;;;;;;;;;;8.70;99.90;;;;;;5051393;28;19921;-74
2021/12/22 14:13:25;;;;;;;;;;;8.70;99.90;;;;;;5052077;28;20421;-74
2021/12/22 14:15:50;;;;;;;;;;;8.70;99.90;;;;;;5051411;28;19912;-74
2021/12/22 14:18:17;;;;;;;;;;;8.70;99.90;;;;;;5050635;28;19905;-74
2021/12/22 14:20:43;;;;;;;;;;;8.70;99.90;;;;;;5051429;28;20343;-74
2021/12/22 14:23:09;;;;;;;;;;;8.70;99.90;;;;;;5050964;28;19912;-74
2021/12/22 14:25:36;;;;;;;;;;;8.80;99.90;;;;;;5052104;28;19905;-74
2021/12/22 14:28:23;;;;;;;;;;;8.80;99.90;;;;;;5051864;28;20359;-74
2021/12/22 14:30:49;;;;;;;;;;;8.90;99.90;;;;;;5051167;28;19913;-74
2021/12/22 14:33:30;;;;;;;;;;;8.90;99.90;;;;;;5052429;28;20271;-74
2021/12/22 14:35:58;;;;;;;;;;;9.00;99.90;;;;;;5051216;28;19901;-74
2021/12/22 14:38:24;;;;;;;;;;;9.10;99.90;;;;;;5050397;28;19912;-74
2021/12/22 14:40:53;;;;;;;;;;;9.10;99.90;;;;;;5047903;28;19901;-75
2021/12/22 14:43:18;;;;;;;;;;;9.10;99.90;;;;;;5051711;28;19987;-74
2021/12/22 14:45:49;;;;;;;;;;;9.10;99.90;;;;;;5051582;28;19986;-75
2021/12/22 14:48:16;;;;;;;;;;;9.10;99.90;;;;;;5049888;28;19944;-74
2021/12/22 14:51:02;;;;;;;;;;;9.20;99.90;;;;;;5050650;28;19919;-74
2021/12/22 14:53:27;;;;;;;;;;;9.20;99.90;;;;;;5051116;28;19908;-74
2021/12/22 14:55:54;;;;;;;;;;;9.20;99.90;;;;;;5050897;28;20248;-75
2021/12/22 14:58:20;;;;;;;;;;;9.30;99.90;;;;;;5051613;28;19908;-74